sensor_id;sensor_type;location;lat;lon;timestamp;pressure;altitude;pressure_sealevel;temperature;humidity
63903;BME280;50072;50.678;13.938;2022-11-20T00:01:26;99302.50;;;-6.26;89.27
63903;BME280;50072;50.678;13.938;2022-11-20T00:03:53;99314.88;;;-6.43;88.02
63903;BME280;50072;50.678;13.938;2022-11-20T00:06:20;99314.03;;;-6.66;89.41
63903;BME280;50072;50.678;13.938;2022-11-20T00:08:48;99315.50;;;-6.96;92.00
63903;BME280;50072;50.678;13.938;2022-11-20T00:11:18;99308.34;;;-7.01;92.18
63903;BME280;50072;50.678;13.938;2022-11-20T00:13:45;99316.00;;;-7.27;93.93
63903;BME280;50072;50.678;13.938;2022-11-20T00:16:20;99316.41;;;-7.18;93.59
63903;BME280;50072;50.678;13.938;2022-11-20T00:18:47;99307.19;;;-7.09;93.77
63903;BME280;50072;50.678;13.938;2022-11-20T00:21:21;99310.84;;;-7.04;93.78
63903;BME280;50072;50.678;13.938;2022-11-20T00:23:50;99315.16;;;-7.05;93.36
63903;BME280;50072;50.678;13.938;2022-11-20T00:26:19;99307.44;;;-7.24;93.69
63903;BME280;50072;50.678;13.938;2022-11-20T00:29:01;99308.28;;;-7.25;93.70
63903;BME280;50072;50.678;13.938;2022-11-20T00:31:32;99305.28;;;-7.14;93.36
63903;BME280;50072;50.678;13.938;2022-11-20T00:36:48;99313.53;;;-7.24;91.43
63903;BME280;50072;50.678;13.938;2022-11-20T00:39:14;99312.88;;;-7.41;92.20
63903;BME280;50072;50.678;13.938;2022-11-20T00:41:48;99318.56;;;-7.50;93.80
63903;BME280;50072;50.678;13.938;2022-11-20T00:44:19;99312.75;;;-7.65;94.84
63903;BME280;50072;50.678;13.938;2022-11-20T00:46:48;99318.53;;;-7.72;95.65
63903;BME280;50072;50.678;13.938;2022-11-20T00:49:18;99317.03;;;-7.66;95.69
63903;BME280;50072;50.678;13.938;2022-11-20T00:51:46;99318.31;;;-7.56;95.16
63903;BME280;50072;50.678;13.938;2022-11-20T00:54:18;99320.34;;;-7.49;95.97
63903;BME280;50072;50.678;13.938;2022-11-20T00:56:48;99330.44;;;-7.35;95.81
63903;BME280;50072;50.678;13.938;2022-11-20T00:59:18;99330.56;;;-7.32;96.79
63903;BME280;50072;50.678;13.938;2022-11-20T01:01:49;99332.00;;;-7.18;96.44
63903;BME280;50072;50.678;13.938;2022-11-20T01:04:18;99334.38;;;-7.01;94.24
63903;BME280;50072;50.678;13.938;2022-11-20T01:06:49;99339.19;;;-6.89;94.41
63903;BME280;50072;50.678;13.938;2022-11-20T01:09:18;99340.13;;;-6.87;92.59
63903;BME280;50072;50.678;13.938;2022-11-20T01:11:49;99342.72;;;-6.87;91.47
63903;BME280;50072;50.678;13.938;2022-11-20T01:14:19;99348.34;;;-6.99;90.81
63903;BME280;50072;50.678;13.938;2022-11-20T01:16:49;99349.97;;;-7.01;90.99
63903;BME280;50072;50.678;13.938;2022-11-20T01:19:21;99345.19;;;-7.13;90.34
63903;BME280;50072;50.678;13.938;2022-11-20T01:21:51;99342.63;;;-7.12;90.42
63903;BME280;50072;50.678;13.938;2022-11-20T01:24:19;99339.97;;;-7.13;91.06
63903;BME280;50072;50.678;13.938;2022-11-20T01:26:49;99337.38;;;-7.13;90.89
63903;BME280;50072;50.678;13.938;2022-11-20T01:29:21;99344.41;;;-7.11;91.86
63903;BME280;50072;50.678;13.938;2022-11-20T01:31:48;99346.44;;;-7.03;93.08
63903;BME280;50072;50.678;13.938;2022-11-20T01:34:18;99346.19;;;-7.09;95.52
63903;BME280;50072;50.678;13.938;2022-11-20T01:36:51;99332.91;;;-6.95;96.54
63903;BME280;50072;50.678;13.938;2022-11-20T01:39:20;99327.75;;;-6.93;97.66
63903;BME280;50072;50.678;13.938;2022-11-20T01:41:49;99322.31;;;-6.77;98.22
63903;BME280;50072;50.678;13.938;2022-11-20T01:47:31;99325.53;;;-6.61;97.85
63903;BME280;50072;50.678;13.938;2022-11-20T01:50:23;99325.03;;;-6.51;97.54
63903;BME280;50072;50.678;13.938;2022-11-20T01:53:11;99322.31;;;-6.54;97.03
63903;BME280;50072;50.678;13.938;2022-11-20T01:55:51;99331.16;;;-6.49;96.26
63903;BME280;50072;50.678;13.938;2022-11-20T01:58:22;99327.75;;;-6.48;94.30
63903;BME280;50072;50.678;13.938;2022-11-20T02:00:57;99326.81;;;-6.50;92.23
63903;BME280;50072;50.678;13.938;2022-11-20T02:03:48;99326.72;;;-6.51;91.25
63903;BME280;50072;50.678;13.938;2022-11-20T02:06:26;99323.13;;;-6.55;90.50
63903;BME280;50072;50.678;13.938;2022-11-20T02:09:00;99320.66;;;-6.52;90.83
63903;BME280;50072;50.678;13.938;2022-11-20T02:11:30;99321.09;;;-6.64;91.08
63903;BME280;50072;50.678;13.938;2022-11-20T02:14:02;99317.81;;;-6.58;90.93
63903;BME280;50072;50.678;13.938;2022-11-20T02:16:43;99307.75;;;-6.49;91.22
63903;BME280;50072;50.678;13.938;2022-11-20T02:19:23;99312.34;;;-6.42;91.36
63903;BME280;50072;50.678;13.938;2022-11-20T02:22:04;99305.31;;;-6.20;91.82
63903;BME280;50072;50.678;13.938;2022-11-20T02:24:48;99303.03;;;-6.11;90.86
63903;BME280;50072;50.678;13.938;2022-11-20T02:27:18;99311.97;;;-6.04;90.33
63903;BME280;50072;50.678;13.938;2022-11-20T02:30:04;99309.75;;;-5.92;90.44
63903;BME280;50072;50.678;13.938;2022-11-20T02:32:48;99304.81;;;-5.84;89.75
63903;BME280;50072;50.678;13.938;2022-11-20T02:38:02;99294.97;;;-5.67;89.37
63903;BME280;50072;50.678;13.938;2022-11-20T02:40:48;99288.94;;;-5.64;88.56
63903;BME280;50072;50.678;13.938;2022-11-20T02:43:20;99292.31;;;-5.68;87.51
63903;BME280;50072;50.678;13.938;2022-11-20T02:45:48;99295.16;;;-5.61;88.29
63903;BME280;50072;50.678;13.938;2022-11-20T02:48:18;99288.00;;;-5.66;87.99
63903;BME280;50072;50.678;13.938;2022-11-20T02:50:45;99289.16;;;-5.58;88.64
63903;BME280;50072;50.678;13.938;2022-11-20T02:53:18;99287.47;;;-5.56;88.20
63903;BME280;50072;50.678;13.938;2022-11-20T02:55:50;99282.59;;;-5.47;88.10
63903;BME280;50072;50.678;13.938;2022-11-20T02:58:18;99284.41;;;-5.44;87.93
63903;BME280;50072;50.678;13.938;2022-11-20T03:00:47;99271.06;;;-5.26;87.84
63903;BME280;50072;50.678;13.938;2022-11-20T03:03:20;99273.94;;;-5.18;87.82
63903;BME280;50072;50.678;13.938;2022-11-20T03:05:48;99265.84;;;-5.26;88.07
63903;BME280;50072;50.678;13.938;2022-11-20T03:08:19;99267.75;;;-5.21;87.44
63903;BME280;50072;50.678;13.938;2022-11-20T03:10:45;99267.72;;;-5.22;87.14
63903;BME280;50072;50.678;13.938;2022-11-20T03:13:18;99265.88;;;-5.25;87.81
63903;BME280;50072;50.678;13.938;2022-11-20T03:15:48;99263.72;;;-5.11;88.19
63903;BME280;50072;50.678;13.938;2022-11-20T03:18:20;99264.28;;;-4.92;87.89
63903;BME280;50072;50.678;13.938;2022-11-20T03:20:48;99261.13;;;-4.80;88.40
63903;BME280;50072;50.678;13.938;2022-11-20T03:23:18;99273.59;;;-4.72;88.58
63903;BME280;50072;50.678;13.938;2022-11-20T03:25:48;99268.56;;;-4.65;88.01
63903;BME280;50072;50.678;13.938;2022-11-20T03:28:18;99272.81;;;-4.68;88.48
63903;BME280;50072;50.678;13.938;2022-11-20T03:30:48;99265.84;;;-4.69;87.48
63903;BME280;50072;50.678;13.938;2022-11-20T03:33:18;99271.13;;;-4.67;88.15
63903;BME280;50072;50.678;13.938;2022-11-20T03:35:48;99275.94;;;-4.51;87.88
63903;BME280;50072;50.678;13.938;2022-11-20T03:38:19;99269.47;;;-4.63;87.52
63903;BME280;50072;50.678;13.938;2022-11-20T03:40:48;99272.81;;;-4.68;87.56
63903;BME280;50072;50.678;13.938;2022-11-20T03:43:18;99273.72;;;-4.67;87.45
63903;BME280;50072;50.678;13.938;2022-11-20T03:45:48;99270.63;;;-4.54;88.17
63903;BME280;50072;50.678;13.938;2022-11-20T03:48:18;99265.75;;;-4.41;88.35
63903;BME280;50072;50.678;13.938;2022-11-20T03:50:51;99280.72;;;-4.36;87.68
63903;BME280;50072;50.678;13.938;2022-11-20T03:53:18;99272.94;;;-4.34;87.07
63903;BME280;50072;50.678;13.938;2022-11-20T03:55:51;99269.84;;;-4.51;87.48
63903;BME280;50072;50.678;13.938;2022-11-20T03:58:17;99276.41;;;-4.34;87.03
63903;BME280;50072;50.678;13.938;2022-11-20T04:00:48;99267.81;;;-4.29;87.25
63903;BME280;50072;50.678;13.938;2022-11-20T04:03:20;99266.41;;;-4.18;86.12
63903;BME280;50072;50.678;13.938;2022-11-20T04:05:48;99273.44;;;-4.16;86.10
63903;BME280;50072;50.678;13.938;2022-11-20T04:08:18;99263.63;;;-4.24;86.19
63903;BME280;50072;50.678;13.938;2022-11-20T04:10:48;99260.34;;;-4.17;86.16
63903;BME280;50072;50.678;13.938;2022-11-20T04:13:19;99264.47;;;-4.25;86.65
63903;BME280;50072;50.678;13.938;2022-11-20T04:15:48;99261.94;;;-4.22;86.40
63903;BME280;50072;50.678;13.938;2022-11-20T04:18:18;99265.59;;;-4.16;86.64
63903;BME280;50072;50.678;13.938;2022-11-20T04:20:45;99263.84;;;-4.15;86.24
63903;BME280;50072;50.678;13.938;2022-11-20T04:23:10;99261.16;;;-4.18;86.15
63903;BME280;50072;50.678;13.938;2022-11-20T04:25:48;99262.69;;;-4.26;86.26
63903;BME280;50072;50.678;13.938;2022-11-20T04:28:20;99252.53;;;-4.16;86.92
63903;BME280;50072;50.678;13.938;2022-11-20T04:30:46;99254.44;;;-4.10;86.83
63903;BME280;50072;50.678;13.938;2022-11-20T04:33:19;99250.13;;;-4.08;85.81
63903;BME280;50072;50.678;13.938;2022-11-20T04:35:48;99252.16;;;-3.97;85.91
63903;BME280;50072;50.678;13.938;2022-11-20T04:38:18;99249.25;;;-4.08;85.96
63903;BME280;50072;50.678;13.938;2022-11-20T04:40:50;99253.09;;;-3.94;85.75
63903;BME280;50072;50.678;13.938;2022-11-20T04:43:18;99250.03;;;-4.11;84.98
63903;BME280;50072;50.678;13.938;2022-11-20T04:45:54;99252.16;;;-3.97;85.06
63903;BME280;50072;50.678;13.938;2022-11-20T04:48:31;99252.53;;;-3.82;85.70
63903;BME280;50072;50.678;13.938;2022-11-20T04:51:03;99247.47;;;-3.76;84.54
63903;BME280;50072;50.678;13.938;2022-11-20T04:53:35;99245.69;;;-3.77;84.94
63903;BME280;50072;50.678;13.938;2022-11-20T04:56:18;99242.72;;;-3.91;85.16
63903;BME280;50072;50.678;13.938;2022-11-20T04:58:50;99243.94;;;-3.76;85.40
63903;BME280;50072;50.678;13.938;2022-11-20T05:01:22;99240.66;;;-3.69;84.56
63903;BME280;50072;50.678;13.938;2022-11-20T05:04:01;99245.84;;;-3.71;85.47
63903;BME280;50072;50.678;13.938;2022-11-20T05:06:32;99234.78;;;-3.60;85.21
63903;BME280;50072;50.678;13.938;2022-11-20T05:09:18;99230.31;;;-3.65;85.70
63903;BME280;50072;50.678;13.938;2022-11-20T05:11:49;99224.97;;;-3.69;85.02
63903;BME280;50072;50.678;13.938;2022-11-20T05:14:18;99235.38;;;-3.71;86.45
63903;BME280;50072;50.678;13.938;2022-11-20T05:16:48;99233.69;;;-3.69;86.34
63903;BME280;50072;50.678;13.938;2022-11-20T05:19:20;99230.13;;;-3.72;86.13
63903;BME280;50072;50.678;13.938;2022-11-20T05:21:48;99235.69;;;-3.58;85.41
63903;BME280;50072;50.678;13.938;2022-11-20T05:24:18;99233.06;;;-3.58;85.25
63903;BME280;50072;50.678;13.938;2022-11-20T05:26:49;99246.28;;;-3.52;84.17
63903;BME280;50072;50.678;13.938;2022-11-20T05:29:18;99239.34;;;-3.52;85.02
63903;BME280;50072;50.678;13.938;2022-11-20T05:31:48;99236.69;;;-3.53;85.24
63903;BME280;50072;50.678;13.938;2022-11-20T05:34:20;99238.41;;;-3.54;85.30
63903;BME280;50072;50.678;13.938;2022-11-20T05:36:48;99234.16;;;-3.50;84.81
63903;BME280;50072;50.678;13.938;2022-11-20T05:39:18;99229.00;;;-3.47;83.99
63903;BME280;50072;50.678;13.938;2022-11-20T05:41:50;99223.94;;;-3.39;84.25
63903;BME280;50072;50.678;13.938;2022-11-20T05:44:37;99231.97;;;-3.32;84.68
63903;BME280;50072;50.678;13.938;2022-11-20T05:47:03;99223.97;;;-3.38;84.51
63903;BME280;50072;50.678;13.938;2022-11-20T05:49:39;99222.34;;;-3.33;84.92
63903;BME280;50072;50.678;13.938;2022-11-20T05:52:07;99223.16;;;-3.35;85.05
63903;BME280;50072;50.678;13.938;2022-11-20T05:54:48;99208.47;;;-3.30;86.12
63903;BME280;50072;50.678;13.938;2022-11-20T05:57:18;99215.34;;;-3.34;85.78
63903;BME280;50072;50.678;13.938;2022-11-20T05:59:49;99206.78;;;-3.26;86.00
63903;BME280;50072;50.678;13.938;2022-11-20T06:02:18;99208.69;;;-3.19;85.75
63903;BME280;50072;50.678;13.938;2022-11-20T06:04:50;99206.00;;;-3.22;85.47
63903;BME280;50072;50.678;13.938;2022-11-20T06:07:18;99201.44;;;-3.31;85.59
63903;BME280;50072;50.678;13.938;2022-11-20T06:09:50;99206.66;;;-3.33;86.08
63903;BME280;50072;50.678;13.938;2022-11-20T06:12:18;99208.56;;;-3.25;86.34
63903;BME280;50072;50.678;13.938;2022-11-20T06:14:50;99208.00;;;-3.12;85.27
63903;BME280;50072;50.678;13.938;2022-11-20T06:17:18;99211.19;;;-3.25;86.04
63903;BME280;50072;50.678;13.938;2022-11-20T06:19:48;99214.06;;;-3.13;85.54
63903;BME280;50072;50.678;13.938;2022-11-20T06:22:20;99208.84;;;-3.13;85.33
63903;BME280;50072;50.678;13.938;2022-11-20T06:24:48;99212.44;;;-3.08;85.58
63903;BME280;50072;50.678;13.938;2022-11-20T06:27:15;99215.84;;;-3.12;85.51
63903;BME280;50072;50.678;13.938;2022-11-20T06:29:43;99214.06;;;-3.13;84.77
63903;BME280;50072;50.678;13.938;2022-11-20T06:32:15;99205.03;;;-3.27;85.52
63903;BME280;50072;50.678;13.938;2022-11-20T06:34:43;99199.81;;;-3.27;85.92
63903;BME280;50072;50.678;13.938;2022-11-20T06:37:09;99202.03;;;-3.44;86.01
63903;BME280;50072;50.678;13.938;2022-11-20T06:39:35;99193.66;;;-3.28;86.42
63903;BME280;50072;50.678;13.938;2022-11-20T06:42:01;99194.75;;;-3.18;86.30
63903;BME280;50072;50.678;13.938;2022-11-20T06:44:27;99194.44;;;-3.32;86.30
63903;BME280;50072;50.678;13.938;2022-11-20T06:46:57;99200.25;;;-3.45;87.54
63903;BME280;50072;50.678;13.938;2022-11-20T06:49:25;99197.75;;;-3.39;86.79
63903;BME280;50072;50.678;13.938;2022-11-20T06:51:51;99202.84;;;-3.47;87.76
63903;BME280;50072;50.678;13.938;2022-11-20T06:54:18;99200.16;;;-3.50;87.88
63903;BME280;50072;50.678;13.938;2022-11-20T06:56:47;99203.00;;;-3.39;87.62
63903;BME280;50072;50.678;13.938;2022-11-20T06:59:13;99206.44;;;-3.42;87.69
63903;BME280;50072;50.678;13.938;2022-11-20T07:01:39;99198.47;;;-3.47;87.97
63903;BME280;50072;50.678;13.938;2022-11-20T07:04:06;99205.31;;;-3.53;88.18
63903;BME280;50072;50.678;13.938;2022-11-20T07:06:32;99201.34;;;-3.36;88.24
63903;BME280;50072;50.678;13.938;2022-11-20T07:08:58;99203.03;;;-3.38;87.85
63903;BME280;50072;50.678;13.938;2022-11-20T07:11:24;99203.84;;;-3.42;88.16
63903;BME280;50072;50.678;13.938;2022-11-20T07:13:50;99207.34;;;-3.40;88.53
63903;BME280;50072;50.678;13.938;2022-11-20T07:16:17;99202.16;;;-3.38;88.46
63903;BME280;50072;50.678;13.938;2022-11-20T07:18:43;99204.59;;;-3.46;88.50
63903;BME280;50072;50.678;13.938;2022-11-20T07:21:10;99208.63;;;-3.22;87.87
63903;BME280;50072;50.678;13.938;2022-11-20T07:23:37;99202.59;;;-3.18;88.01
63903;BME280;50072;50.678;13.938;2022-11-20T07:26:06;99208.50;;;-3.28;87.45
63903;BME280;50072;50.678;13.938;2022-11-20T07:28:33;99202.47;;;-3.24;87.70
63903;BME280;50072;50.678;13.938;2022-11-20T07:30:59;99197.31;;;-3.21;87.59
63903;BME280;50072;50.678;13.938;2022-11-20T07:33:26;99189.06;;;-3.00;87.76
63903;BME280;50072;50.678;13.938;2022-11-20T07:35:52;99191.44;;;-3.11;87.65
63903;BME280;50072;50.678;13.938;2022-11-20T07:38:18;99187.47;;;-2.93;87.27
63903;BME280;50072;50.678;13.938;2022-11-20T07:40:45;99188.34;;;-2.91;87.34
63903;BME280;50072;50.678;13.938;2022-11-20T07:43:11;99186.56;;;-2.94;87.36
63903;BME280;50072;50.678;13.938;2022-11-20T07:45:38;99200.22;;;-3.09;87.33
63903;BME280;50072;50.678;13.938;2022-11-20T07:48:04;99197.13;;;-2.89;88.06
63903;BME280;50072;50.678;13.938;2022-11-20T07:50:31;99203.25;;;-2.89;87.52
63903;BME280;50072;50.678;13.938;2022-11-20T07:53:02;99192.03;;;-2.83;87.63
63903;BME280;50072;50.678;13.938;2022-11-20T07:55:29;99189.19;;;-2.92;87.62
63903;BME280;50072;50.678;13.938;2022-11-20T07:57:57;99190.84;;;-2.99;88.62
63903;BME280;50072;50.678;13.938;2022-11-20T08:00:24;99187.56;;;-2.87;88.39
63903;BME280;50072;50.678;13.938;2022-11-20T08:02:53;99177.41;;;-2.72;88.09
63903;BME280;50072;50.678;13.938;2022-11-20T08:05:19;99185.50;;;-2.60;87.63
63903;BME280;50072;50.678;13.938;2022-11-20T08:07:46;99189.91;;;-2.58;87.38
63903;BME280;50072;50.678;13.938;2022-11-20T08:10:14;99183.00;;;-2.55;88.42
63903;BME280;50072;50.678;13.938;2022-11-20T08:12:50;99180.56;;;-2.44;88.06
63903;BME280;50072;50.678;13.938;2022-11-20T08:15:36;99166.69;;;-2.38;87.42
63903;BME280;50072;50.678;13.938;2022-11-20T08:18:10;99168.59;;;-2.31;87.65
63903;BME280;50072;50.678;13.938;2022-11-20T08:20:37;99159.19;;;-2.18;87.86
63903;BME280;50072;50.678;13.938;2022-11-20T08:23:06;99163.78;;;-2.08;87.38
63903;BME280;50072;50.678;13.938;2022-11-20T08:25:34;99160.31;;;-2.04;87.40
63903;BME280;50072;50.678;13.938;2022-11-20T08:28:04;99166.22;;;-2.17;87.27
63903;BME280;50072;50.678;13.938;2022-11-20T08:30:31;99165.00;;;-2.36;87.79
63903;BME280;50072;50.678;13.938;2022-11-20T08:33:05;99170.31;;;-2.33;88.26
63903;BME280;50072;50.678;13.938;2022-11-20T08:35:37;99165.19;;;-2.26;87.83
63903;BME280;50072;50.678;13.938;2022-11-20T08:38:05;99158.34;;;-2.17;88.13
63903;BME280;50072;50.678;13.938;2022-11-20T08:40:33;99156.69;;;-2.14;86.98
63903;BME280;50072;50.678;13.938;2022-11-20T08:43:01;99158.34;;;-2.17;85.31
63903;BME280;50072;50.678;13.938;2022-11-20T08:45:28;99151.50;;;-2.09;85.75
63903;BME280;50072;50.678;13.938;2022-11-20T08:47:59;99159.47;;;-2.03;83.37
63903;BME280;50072;50.678;13.938;2022-11-20T08:50:25;99155.97;;;-2.03;85.22
63903;BME280;50072;50.678;13.938;2022-11-20T08:52:52;99153.09;;;-2.17;85.26
63903;BME280;50072;50.678;13.938;2022-11-20T08:55:18;99148.88;;;-2.11;84.26
63903;BME280;50072;50.678;13.938;2022-11-20T08:57:44;99150.50;;;-2.16;83.08
63903;BME280;50072;50.678;13.938;2022-11-20T09:00:10;99148.69;;;-2.20;82.93
63903;BME280;50072;50.678;13.938;2022-11-20T09:02:37;99142.81;;;-2.08;83.59
63903;BME280;50072;50.678;13.938;2022-11-20T09:05:04;99144.72;;;-1.98;82.63
63903;BME280;50072;50.678;13.938;2022-11-20T09:07:31;99142.03;;;-2.01;81.34
63903;BME280;50072;50.678;13.938;2022-11-20T09:09:56;99143.91;;;-1.94;82.58
63903;BME280;50072;50.678;13.938;2022-11-20T09:12:22;99147.63;;;-1.81;82.75
63903;BME280;50072;50.678;13.938;2022-11-20T09:14:48;99141.38;;;-1.87;81.35
63903;BME280;50072;50.678;13.938;2022-11-20T09:17:15;99147.50;;;-1.87;80.36
63903;BME280;50072;50.678;13.938;2022-11-20T09:19:41;99142.38;;;-1.81;80.49
63903;BME280;50072;50.678;13.938;2022-11-20T09:22:08;99146.88;;;-1.72;79.00
63903;BME280;50072;50.678;13.938;2022-11-20T09:24:34;99138.19;;;-1.68;79.37
63903;BME280;50072;50.678;13.938;2022-11-20T09:27:04;99135.69;;;-1.60;79.67
63903;BME280;50072;50.678;13.938;2022-11-20T09:29:31;99132.22;;;-1.58;77.01
63903;BME280;50072;50.678;13.938;2022-11-20T09:31:57;99131.50;;;-1.47;77.16
63903;BME280;50072;50.678;13.938;2022-11-20T09:34:24;99128.13;;;-1.37;75.70
63903;BME280;50072;50.678;13.938;2022-11-20T09:36:52;99128.28;;;-1.28;76.36
63903;BME280;50072;50.678;13.938;2022-11-20T09:39:18;99131.00;;;-1.20;75.70
63903;BME280;50072;50.678;13.938;2022-11-20T09:45:00;99128.72;;;-0.94;74.44
63903;BME280;50072;50.678;13.938;2022-11-20T09:50:39;99116.63;;;-0.81;72.73
63903;BME280;50072;50.678;13.938;2022-11-20T09:56:07;99131.97;;;-0.40;73.27
63903;BME280;50072;50.678;13.938;2022-11-20T09:58:44;99131.88;;;-0.44;73.13
63903;BME280;50072;50.678;13.938;2022-11-20T10:01:18;99128.69;;;-0.17;72.56
63903;BME280;50072;50.678;13.938;2022-11-20T10:04:03;99126.97;;;-0.09;71.51
63903;BME280;50072;50.678;13.938;2022-11-20T10:06:39;99112.84;;;-0.20;71.47
63903;BME280;50072;50.678;13.938;2022-11-20T10:25:10;99111.00;;;-0.29;72.02
63903;BME280;50072;50.678;13.938;2022-11-20T10:30:15;99099.63;;;-0.28;72.80
63903;BME280;50072;50.678;13.938;2022-11-20T10:32:44;99099.84;;;-0.03;72.35
63903;BME280;50072;50.678;13.938;2022-11-20T10:35:25;99099.00;;;0.03;72.24
63903;BME280;50072;50.678;13.938;2022-11-20T10:38:00;99105.75;;;-0.30;71.77
63903;BME280;50072;50.678;13.938;2022-11-20T10:40:36;99086.47;;;-0.32;72.39
63903;BME280;50072;50.678;13.938;2022-11-20T10:43:16;99088.31;;;-0.21;72.37
63903;BME280;50072;50.678;13.938;2022-11-20T10:45:51;99084.72;;;-0.29;72.60
63903;BME280;50072;50.678;13.938;2022-11-20T10:48:23;99086.53;;;-0.23;72.92
63903;BME280;50072;50.678;13.938;2022-11-20T10:56:31;99085.00;;;0.02;71.16
63903;BME280;50072;50.678;13.938;2022-11-20T10:59:07;99067.59;;;0.24;70.61
63903;BME280;50072;50.678;13.938;2022-11-20T11:01:42;99067.69;;;0.40;71.36
63903;BME280;50072;50.678;13.938;2022-11-20T11:04:35;99073.13;;;0.63;69.09
63903;BME280;50072;50.678;13.938;2022-11-20T11:07:14;99073.75;;;0.22;70.30
63903;BME280;50072;50.678;13.938;2022-11-20T11:09:50;99076.31;;;0.15;70.68
63903;BME280;50072;50.678;13.938;2022-11-20T11:12:19;99071.88;;;0.08;70.73
63903;BME280;50072;50.678;13.938;2022-11-20T11:14:50;99073.59;;;0.00;71.59
63903;BME280;50072;50.678;13.938;2022-11-20T11:17:34;99077.09;;;0.02;72.04
63903;BME280;50072;50.678;13.938;2022-11-20T11:20:16;99075.44;;;0.13;72.25
63903;BME280;50072;50.678;13.938;2022-11-20T11:23:02;99071.81;;;-0.04;71.40
63903;BME280;50072;50.678;13.938;2022-11-20T11:25:35;99072.25;;;-0.50;72.68
63903;BME280;50072;50.678;13.938;2022-11-20T11:28:03;99079.38;;;-0.41;73.54
63903;BME280;50072;50.678;13.938;2022-11-20T11:30:40;99071.47;;;-0.41;73.88
63903;BME280;50072;50.678;13.938;2022-11-20T11:33:29;99065.31;;;-0.45;74.76
63903;BME280;50072;50.678;13.938;2022-11-20T11:36:03;99053.94;;;-0.41;73.62
63903;BME280;50072;50.678;13.938;2022-11-20T11:38:38;99040.94;;;-0.27;73.50
63903;BME280;50072;50.678;13.938;2022-11-20T11:41:09;99044.53;;;-0.15;73.77
63903;BME280;50072;50.678;13.938;2022-11-20T11:43:38;99038.38;;;-0.14;73.11
63903;BME280;50072;50.678;13.938;2022-11-20T11:46:30;99028.84;;;-0.02;73.24
63903;BME280;50072;50.678;13.938;2022-11-20T11:49:01;99027.94;;;-0.05;72.79
63903;BME280;50072;50.678;13.938;2022-11-20T11:54:53;99031.41;;;-0.09;73.32
63903;BME280;50072;50.678;13.938;2022-11-20T11:57:46;99012.25;;;0.07;73.13
63903;BME280;50072;50.678;13.938;2022-11-20T12:00:22;99019.34;;;0.17;72.76
63903;BME280;50072;50.678;13.938;2022-11-20T12:03:03;99008.00;;;0.32;72.49
63903;BME280;50072;50.678;13.938;2022-11-20T12:05:54;99001.97;;;0.54;71.43
63903;BME280;50072;50.678;13.938;2022-11-20T12:08:50;98994.06;;;0.54;71.90
63903;BME280;50072;50.678;13.938;2022-11-20T12:14:50;98994.06;;;0.55;70.75
63903;BME280;50072;50.678;13.938;2022-11-20T12:17:18;98993.13;;;0.38;70.78
63903;BME280;50072;50.678;13.938;2022-11-20T12:19:51;98986.16;;;0.50;71.20
63903;BME280;50072;50.678;13.938;2022-11-20T12:25:10;98992.19;;;0.31;71.57
63903;BME280;50072;50.678;13.938;2022-11-20T12:34:00;98982.59;;;0.39;71.54
63903;BME280;50072;50.678;13.938;2022-11-20T12:36:53;98979.09;;;0.40;72.45
63903;BME280;50072;50.678;13.938;2022-11-20T12:39:35;98987.00;;;0.46;71.48
63903;BME280;50072;50.678;13.938;2022-11-20T12:45:21;98982.50;;;0.24;73.75
63903;BME280;50072;50.678;13.938;2022-11-20T13:06:52;98970.19;;;0.16;76.42
63903;BME280;50072;50.678;13.938;2022-11-20T13:09:20;98957.84;;;0.03;76.75
63903;BME280;50072;50.678;13.938;2022-11-20T13:12:06;98949.06;;;0.04;76.65
63903;BME280;50072;50.678;13.938;2022-11-20T13:14:54;98940.38;;;0.14;76.41
63903;BME280;50072;50.678;13.938;2022-11-20T13:17:41;98930.75;;;0.24;76.67
63903;BME280;50072;50.678;13.938;2022-11-20T13:20:16;98941.31;;;0.30;76.79
63903;BME280;50072;50.678;13.938;2022-11-20T13:22:54;98949.25;;;0.38;76.57
63903;BME280;50072;50.678;13.938;2022-11-20T13:25:39;98934.31;;;0.32;76.51
63903;BME280;50072;50.678;13.938;2022-11-20T13:30:35;98949.22;;;0.26;76.56
63903;BME280;50072;50.678;13.938;2022-11-20T13:33:22;98949.13;;;0.13;75.99
63903;BME280;50072;50.678;13.938;2022-11-20T13:36:19;98954.38;;;0.07;76.28
63903;BME280;50072;50.678;13.938;2022-11-20T13:38:54;98953.53;;;0.13;76.23
63903;BME280;50072;50.678;13.938;2022-11-20T13:41:38;98948.09;;;-0.10;75.66
63903;BME280;50072;50.678;13.938;2022-11-20T13:44:14;98944.59;;;-0.12;75.71
63903;BME280;50072;50.678;13.938;2022-11-20T13:46:43;98940.16;;;-0.23;76.50
63903;BME280;50072;50.678;13.938;2022-11-20T13:51:51;98940.22;;;-0.12;76.32
63903;BME280;50072;50.678;13.938;2022-11-20T13:54:43;98935.78;;;-0.19;75.72
63903;BME280;50072;50.678;13.938;2022-11-20T13:57:30;98934.00;;;-0.23;76.21
63903;BME280;50072;50.678;13.938;2022-11-20T14:00:14;98927.03;;;-0.20;77.40
63903;BME280;50072;50.678;13.938;2022-11-20T14:02:41;98927.03;;;-0.16;76.61
63903;BME280;50072;50.678;13.938;2022-11-20T14:05:19;98932.28;;;-0.18;76.37
63903;BME280;50072;50.678;13.938;2022-11-20T14:07:47;98933.22;;;-0.11;76.22
63903;BME280;50072;50.678;13.938;2022-11-20T14:10:26;98915.69;;;-0.12;76.07
63903;BME280;50072;50.678;13.938;2022-11-20T14:12:53;98917.47;;;-0.05;75.90
63903;BME280;50072;50.678;13.938;2022-11-20T14:15:32;98932.31;;;-0.12;76.48
63903;BME280;50072;50.678;13.938;2022-11-20T14:18:18;98936.59;;;-0.31;76.67
63903;BME280;50072;50.678;13.938;2022-11-20T14:20:45;98938.38;;;-0.30;77.10
63903;BME280;50072;50.678;13.938;2022-11-20T14:23:23;98940.91;;;-0.42;77.55
63903;BME280;50072;50.678;13.938;2022-11-20T14:25:51;98935.53;;;-0.56;78.48
63903;BME280;50072;50.678;13.938;2022-11-20T14:28:26;98933.75;;;-0.59;78.70
63903;BME280;50072;50.678;13.938;2022-11-20T14:30:54;98942.47;;;-0.64;79.44
63903;BME280;50072;50.678;13.938;2022-11-20T14:33:21;98934.66;;;-0.60;79.67
63903;BME280;50072;50.678;13.938;2022-11-20T14:35:55;98939.78;;;-0.72;79.98
63903;BME280;50072;50.678;13.938;2022-11-20T14:38:29;98938.09;;;-0.67;79.77
63903;BME280;50072;50.678;13.938;2022-11-20T14:41:17;98929.19;;;-0.81;80.13